sensor_id;sensor_type;location;lat;lon;timestamp;temperature;humidity
25332;DHT22;13284;52.748;13.452;2023-09-08T00:02:26;15.90;99.90
25332;DHT22;13284;52.748;13.452;2023-09-08T00:04:52;15.90;99.90
25332;DHT22;13284;52.748;13.452;2023-09-08T00:07:17;15.90;99.90
25332;DHT22;13284;52.748;13.452;2023-09-08T00:09:43;15.80;99.90
25332;DHT22;13284;52.748;13.452;2023-09-08T00:12:08;15.80;99.90
25332;DHT22;13284;52.748;13.452;2023-09-08T00:14:34;15.80;99.90
25332;DHT22;13284;52.748;13.452;2023-09-08T00:17:00;15.80;99.90
25332;DHT22;13284;52.748;13.452;2023-09-08T00:19:25;15.80;99.90
25332;DHT22;13284;52.748;13.452;2023-09-08T00:21:54;15.80;99.90
25332;DHT22;13284;52.748;13.452;2023-09-08T00:24:19;15.90;99.90
25332;DHT22;13284;52.748;13.452;2023-09-08T00:26:48;15.80;99.90
25332;DHT22;13284;52.748;13.452;2023-09-08T00:29:13;15.80;99.90
25332;DHT22;13284;52.748;13.452;2023-09-08T00:31:39;15.80;99.90
25332;DHT22;13284;52.748;13.452;2023-09-08T00:34:04;15.70;99.90
25332;DHT22;13284;52.748;13.452;2023-09-08T00:36:30;15.70;99.90
25332;DHT22;13284;52.748;13.452;2023-09-08T00:38:56;15.70;99.90
25332;DHT22;13284;52.748;13.452;2023-09-08T00:41:22;15.70;99.90
25332;DHT22;13284;52.748;13.452;2023-09-08T00:43:49;15.70;99.90
25332;DHT22;13284;52.748;13.452;2023-09-08T00:46:14;15.70;99.90
25332;DHT22;13284;52.748;13.452;2023-09-08T00:48:41;15.60;99.90
25332;DHT22;13284;52.748;13.452;2023-09-08T00:51:08;15.60;99.90
25332;DHT22;13284;52.748;13.452;2023-09-08T00:53:35;15.70;99.90
25332;DHT22;13284;52.748;13.452;2023-09-08T00:56:01;15.70;99.90
25332;DHT22;13284;52.748;13.452;2023-09-08T00:58:27;15.60;99.90
25332;DHT22;13284;52.748;13.452;2023-09-08T01:00:52;15.60;99.90
25332;DHT22;13284;52.748;13.452;2023-09-08T01:03:18;15.60;99.90
25332;DHT22;13284;52.748;13.452;2023-09-08T01:05:44;15.50;99.90
25332;DHT22;13284;52.748;13.452;2023-09-08T01:08:12;15.50;99.90
25332;DHT22;13284;52.748;13.452;2023-09-08T01:10:38;15.50;99.90
25332;DHT22;13284;52.748;13.452;2023-09-08T01:13:04;15.50;99.90
25332;DHT22;13284;52.748;13.452;2023-09-08T01:15:30;15.50;99.90
25332;DHT22;13284;52.748;13.452;2023-09-08T01:17:56;15.50;99.90
25332;DHT22;13284;52.748;13.452;2023-09-08T01:23:18;15.60;99.90
25332;DHT22;13284;52.748;13.452;2023-09-08T01:26:07;15.60;99.90
25332;DHT22;13284;52.748;13.452;2023-09-08T01:28:37;15.50;99.90
25332;DHT22;13284;52.748;13.452;2023-09-08T01:31:05;15.50;99.90
25332;DHT22;13284;52.748;13.452;2023-09-08T01:33:30;15.60;99.90
25332;DHT22;13284;52.748;13.452;2023-09-08T01:36:02;15.50;99.90
25332;DHT22;13284;52.748;13.452;2023-09-08T01:38:27;15.50;99.90
25332;DHT22;13284;52.748;13.452;2023-09-08T01:40:53;15.50;99.90
25332;DHT22;13284;52.748;13.452;2023-09-08T01:43:18;15.40;99.90
25332;DHT22;13284;52.748;13.452;2023-09-08T01:45:46;15.40;99.90
25332;DHT22;13284;52.748;13.452;2023-09-08T01:48:12;15.40;99.90
25332;DHT22;13284;52.748;13.452;2023-09-08T01:50:37;15.40;99.90
25332;DHT22;13284;52.748;13.452;2023-09-08T01:53:03;15.40;99.90
25332;DHT22;13284;52.748;13.452;2023-09-08T01:55:31;15.40;99.90
25332;DHT22;13284;52.748;13.452;2023-09-08T01:57:59;15.40;99.90
25332;DHT22;13284;52.748;13.452;2023-09-08T02:00:25;15.30;99.90
25332;DHT22;13284;52.748;13.452;2023-09-08T02:02:51;15.30;99.90
25332;DHT22;13284;52.748;13.452;2023-09-08T02:05:16;15.30;99.90
25332;DHT22;13284;52.748;13.452;2023-09-08T02:07:42;15.30;99.90
25332;DHT22;13284;52.748;13.452;2023-09-08T02:10:07;15.30;99.90
25332;DHT22;13284;52.748;13.452;2023-09-08T02:12:33;15.30;99.90
25332;DHT22;13284;52.748;13.452;2023-09-08T02:14:59;15.30;99.90
25332;DHT22;13284;52.748;13.452;2023-09-08T02:17:25;15.30;99.90
25332;DHT22;13284;52.748;13.452;2023-09-08T02:19:50;15.20;99.90
25332;DHT22;13284;52.748;13.452;2023-09-08T02:22:16;15.20;99.90
25332;DHT22;13284;52.748;13.452;2023-09-08T02:24:44;15.20;99.90
25332;DHT22;13284;52.748;13.452;2023-09-08T02:27:10;15.10;99.90
25332;DHT22;13284;52.748;13.452;2023-09-08T02:29:35;15.10;99.90
25332;DHT22;13284;52.748;13.452;2023-09-08T02:32:01;15.10;99.90
25332;DHT22;13284;52.748;13.452;2023-09-08T02:34:27;15.00;99.90
25332;DHT22;13284;52.748;13.452;2023-09-08T02:36:52;15.00;99.90
25332;DHT22;13284;52.748;13.452;2023-09-08T02:39:18;15.00;99.90
25332;DHT22;13284;52.748;13.452;2023-09-08T02:41:43;15.00;99.90
25332;DHT22;13284;52.748;13.452;2023-09-08T02:44:09;15.00;99.90
25332;DHT22;13284;52.748;13.452;2023-09-08T02:46:34;15.00;99.90
25332;DHT22;13284;52.748;13.452;2023-09-08T02:49:00;15.00;99.90
25332;DHT22;13284;52.748;13.452;2023-09-08T02:51:26;15.00;99.90
25332;DHT22;13284;52.748;13.452;2023-09-08T02:53:52;15.00;99.90
25332;DHT22;13284;52.748;13.452;2023-09-08T02:56:17;14.90;99.90
25332;DHT22;13284;52.748;13.452;2023-09-08T02:58:43;14.90;99.90
25332;DHT22;13284;52.748;13.452;2023-09-08T03:01:17;14.90;99.90
25332;DHT22;13284;52.748;13.452;2023-09-08T03:03:45;14.90;99.90
25332;DHT22;13284;52.748;13.452;2023-09-08T03:06:11;14.90;99.90
25332;DHT22;13284;52.748;13.452;2023-09-08T03:08:37;15.00;99.90
25332;DHT22;13284;52.748;13.452;2023-09-08T03:11:03;14.90;99.90
25332;DHT22;13284;52.748;13.452;2023-09-08T03:13:31;14.90;99.90
25332;DHT22;13284;52.748;13.452;2023-09-08T03:15:56;14.90;99.90
25332;DHT22;13284;52.748;13.452;2023-09-08T03:18:22;14.90;99.90
25332;DHT22;13284;52.748;13.452;2023-09-08T03:20:51;14.90;99.90
25332;DHT22;13284;52.748;13.452;2023-09-08T03:23:17;14.80;99.90
25332;DHT22;13284;52.748;13.452;2023-09-08T03:25:43;14.90;99.90
25332;DHT22;13284;52.748;13.452;2023-09-08T03:28:09;14.90;99.90
25332;DHT22;13284;52.748;13.452;2023-09-08T03:30:34;14.90;99.90
25332;DHT22;13284;52.748;13.452;2023-09-08T03:33:00;14.80;99.90
25332;DHT22;13284;52.748;13.452;2023-09-08T03:35:27;14.90;99.90
25332;DHT22;13284;52.748;13.452;2023-09-08T03:37:53;14.80;99.90
25332;DHT22;13284;52.748;13.452;2023-09-08T03:40:18;14.70;99.90
25332;DHT22;13284;52.748;13.452;2023-09-08T03:42:44;14.70;99.90
25332;DHT22;13284;52.748;13.452;2023-09-08T03:45:10;14.70;99.90
25332;DHT22;13284;52.748;13.452;2023-09-08T03:47:35;14.70;99.90
25332;DHT22;13284;52.748;13.452;2023-09-08T03:50:01;14.70;99.90
25332;DHT22;13284;52.748;13.452;2023-09-08T03:52:26;14.70;99.90
25332;DHT22;13284;52.748;13.452;2023-09-08T03:54:52;14.70;99.90
25332;DHT22;13284;52.748;13.452;2023-09-08T03:57:17;14.70;99.90
25332;DHT22;13284;52.748;13.452;2023-09-08T03:59:43;14.60;99.90
25332;DHT22;13284;52.748;13.452;2023-09-08T04:02:08;14.60;99.90
25332;DHT22;13284;52.748;13.452;2023-09-08T04:04:34;14.60;99.90
25332;DHT22;13284;52.748;13.452;2023-09-08T04:06:59;14.60;99.90
25332;DHT22;13284;52.748;13.452;2023-09-08T04:09:25;14.60;99.90
25332;DHT22;13284;52.748;13.452;2023-09-08T04:11:50;14.60;99.90
25332;DHT22;13284;52.748;13.452;2023-09-08T04:14:16;14.60;99.90
25332;DHT22;13284;52.748;13.452;2023-09-08T04:16:41;14.50;99.90
25332;DHT22;13284;52.748;13.452;2023-09-08T04:19:07;14.60;99.90
25332;DHT22;13284;52.748;13.452;2023-09-08T04:21:32;14.50;99.90
25332;DHT22;13284;52.748;13.452;2023-09-08T04:23:58;14.50;99.90
25332;DHT22;13284;52.748;13.452;2023-09-08T04:26:24;14.50;99.90
25332;DHT22;13284;52.748;13.452;2023-09-08T04:28:49;14.50;99.90
25332;DHT22;13284;52.748;13.452;2023-09-08T04:31:15;14.50;99.90
25332;DHT22;13284;52.748;13.452;2023-09-08T04:33:42;14.50;99.90
25332;DHT22;13284;52.748;13.452;2023-09-08T04:36:07;14.40;99.90
25332;DHT22;13284;52.748;13.452;2023-09-08T04:38:33;14.40;99.90
25332;DHT22;13284;52.748;13.452;2023-09-08T04:40:58;14.40;99.90
25332;DHT22;13284;52.748;13.452;2023-09-08T04:43:23;14.40;99.90
25332;DHT22;13284;52.748;13.452;2023-09-08T04:45:49;14.40;99.90
25332;DHT22;13284;52.748;13.452;2023-09-08T04:48:15;14.30;99.90
25332;DHT22;13284;52.748;13.452;2023-09-08T04:50:41;14.30;99.90
25332;DHT22;13284;52.748;13.452;2023-09-08T04:53:10;14.30;99.90
25332;DHT22;13284;52.748;13.452;2023-09-08T04:55:35;14.40;99.90
25332;DHT22;13284;52.748;13.452;2023-09-08T04:58:03;14.30;99.90
25332;DHT22;13284;52.748;13.452;2023-09-08T05:00:29;14.30;99.90
25332;DHT22;13284;52.748;13.452;2023-09-08T05:02:55;14.30;99.90
25332;DHT22;13284;52.748;13.452;2023-09-08T05:05:20;14.30;99.90
25332;DHT22;13284;52.748;13.452;2023-09-08T05:07:46;14.30;99.90
25332;DHT22;13284;52.748;13.452;2023-09-08T05:10:13;14.40;99.90
25332;DHT22;13284;52.748;13.452;2023-09-08T05:12:38;14.50;99.90
25332;DHT22;13284;52.748;13.452;2023-09-08T05:15:07;14.50;99.90
25332;DHT22;13284;52.748;13.452;2023-09-08T05:17:39;14.50;99.90
25332;DHT22;13284;52.748;13.452;2023-09-08T05:20:06;14.60;99.90
25332;DHT22;13284;52.748;13.452;2023-09-08T05:22:31;14.70;99.90
25332;DHT22;13284;52.748;13.452;2023-09-08T05:24:57;14.70;99.90
25332;DHT22;13284;52.748;13.452;2023-09-08T05:27:22;14.70;99.90
25332;DHT22;13284;52.748;13.452;2023-09-08T05:29:48;14.80;99.90
25332;DHT22;13284;52.748;13.452;2023-09-08T05:32:14;14.80;99.90
25332;DHT22;13284;52.748;13.452;2023-09-08T05:34:39;14.90;99.90
25332;DHT22;13284;52.748;13.452;2023-09-08T05:37:05;15.00;99.90
25332;DHT22;13284;52.748;13.452;2023-09-08T05:39:30;15.00;99.90
25332;DHT22;13284;52.748;13.452;2023-09-08T05:41:56;15.10;99.90
25332;DHT22;13284;52.748;13.452;2023-09-08T05:44:31;15.10;99.90
25332;DHT22;13284;52.748;13.452;2023-09-08T05:46:56;15.20;99.90
25332;DHT22;13284;52.748;13.452;2023-09-08T05:49:22;15.30;99.90
25332;DHT22;13284;52.748;13.452;2023-09-08T05:51:47;15.30;99.90
25332;DHT22;13284;52.748;13.452;2023-09-08T05:54:13;15.40;99.90
25332;DHT22;13284;52.748;13.452;2023-09-08T05:56:39;15.50;99.90
25332;DHT22;13284;52.748;13.452;2023-09-08T05:59:05;15.60;99.90
25332;DHT22;13284;52.748;13.452;2023-09-08T06:01:31;15.70;99.90
25332;DHT22;13284;52.748;13.452;2023-09-08T06:03:58;15.80;99.90
25332;DHT22;13284;52.748;13.452;2023-09-08T06:06:23;15.90;99.90
25332;DHT22;13284;52.748;13.452;2023-09-08T06:08:50;16.00;99.90
25332;DHT22;13284;52.748;13.452;2023-09-08T06:11:16;16.10;99.90
25332;DHT22;13284;52.748;13.452;2023-09-08T06:13:41;16.30;99.90
25332;DHT22;13284;52.748;13.452;2023-09-08T06:16:07;16.40;99.90
25332;DHT22;13284;52.748;13.452;2023-09-08T06:18:33;16.50;99.90
25332;DHT22;13284;52.748;13.452;2023-09-08T06:21:06;16.70;99.90
25332;DHT22;13284;52.748;13.452;2023-09-08T06:23:32;16.80;99.90
25332;DHT22;13284;52.748;13.452;2023-09-08T06:26:20;16.90;99.90
25332;DHT22;13284;52.748;13.452;2023-09-08T06:33:12;17.20;99.90
25332;DHT22;13284;52.748;13.452;2023-09-08T06:42:40;17.80;99.90
25332;DHT22;13284;52.748;13.452;2023-09-08T06:49:15;18.10;99.90
25332;DHT22;13284;52.748;13.452;2023-09-08T07:06:20;19.00;99.90
25332;DHT22;13284;52.748;13.452;2023-09-08T07:09:20;19.10;99.90
25332;DHT22;13284;52.748;13.452;2023-09-08T07:12:11;19.30;99.90
25332;DHT22;13284;52.748;13.452;2023-09-08T07:15:47;19.40;99.90
25332;DHT22;13284;52.748;13.452;2023-09-08T07:18:18;19.50;99.90
25332;DHT22;13284;52.748;13.452;2023-09-08T07:21:09;19.70;99.90
25332;DHT22;13284;52.748;13.452;2023-09-08T07:23:36;19.80;99.90
25332;DHT22;13284;52.748;13.452;2023-09-08T07:26:31;19.90;99.90
25332;DHT22;13284;52.748;13.452;2023-09-08T07:29:45;20.10;99.90
25332;DHT22;13284;52.748;13.452;2023-09-08T07:32:35;20.20;99.90
25332;DHT22;13284;52.748;13.452;2023-09-08T07:38:32;20.50;99.90
25332;DHT22;13284;52.748;13.452;2023-09-08T07:41:02;20.70;99.90
25332;DHT22;13284;52.748;13.452;2023-09-08T07:43:32;20.80;99.90
25332;DHT22;13284;52.748;13.452;2023-09-08T07:45:59;20.90;99.90
25332;DHT22;13284;52.748;13.452;2023-09-08T07:48:31;21.00;99.90
25332;DHT22;13284;52.748;13.452;2023-09-08T07:51:00;21.10;99.90
25332;DHT22;13284;52.748;13.452;2023-09-08T07:53:33;21.30;99.90
25332;DHT22;13284;52.748;13.452;2023-09-08T07:56:10;21.40;99.90
25332;DHT22;13284;52.748;13.452;2023-09-08T07:58:38;21.50;99.90
25332;DHT22;13284;52.748;13.452;2023-09-08T08:01:06;21.70;99.90
25332;DHT22;13284;52.748;13.452;2023-09-08T08:03:37;21.80;99.90
25332;DHT22;13284;52.748;13.452;2023-09-08T08:06:03;21.90;99.90
25332;DHT22;13284;52.748;13.452;2023-09-08T08:08:35;22.00;99.90
25332;DHT22;13284;52.748;13.452;2023-09-08T08:11:14;22.10;99.90
25332;DHT22;13284;52.748;13.452;2023-09-08T08:13:43;22.30;99.90
25332;DHT22;13284;52.748;13.452;2023-09-08T08:16:09;22.30;99.90
25332;DHT22;13284;52.748;13.452;2023-09-08T08:18:34;22.50;99.90
25332;DHT22;13284;52.748;13.452;2023-09-08T08:21:00;22.60;99.90
25332;DHT22;13284;52.748;13.452;2023-09-08T08:23:49;22.70;99.90
25332;DHT22;13284;52.748;13.452;2023-09-08T08:26:20;22.90;99.90
25332;DHT22;13284;52.748;13.452;2023-09-08T08:28:45;23.10;99.90
25332;DHT22;13284;52.748;13.452;2023-09-08T08:31:13;23.20;99.90
25332;DHT22;13284;52.748;13.452;2023-09-08T08:33:39;23.40;99.90
25332;DHT22;13284;52.748;13.452;2023-09-08T08:36:06;23.60;99.90
25332;DHT22;13284;52.748;13.452;2023-09-08T08:38:32;23.70;99.90
25332;DHT22;13284;52.748;13.452;2023-09-08T08:41:03;24.10;99.90
25332;DHT22;13284;52.748;13.452;2023-09-08T08:43:31;24.40;99.90
25332;DHT22;13284;52.748;13.452;2023-09-08T08:45:57;24.80;99.90
25332;DHT22;13284;52.748;13.452;2023-09-08T08:48:23;25.40;99.90
25332;DHT22;13284;52.748;13.452;2023-09-08T08:50:50;25.80;99.90
25332;DHT22;13284;52.748;13.452;2023-09-08T08:53:17;26.10;99.90
25332;DHT22;13284;52.748;13.452;2023-09-08T08:55:44;26.30;99.90
25332;DHT22;13284;52.748;13.452;2023-09-08T08:58:10;26.70;99.90
25332;DHT22;13284;52.748;13.452;2023-09-08T09:00:35;26.80;99.90
25332;DHT22;13284;52.748;13.452;2023-09-08T09:03:04;27.20;99.90
25332;DHT22;13284;52.748;13.452;2023-09-08T09:05:32;27.60;99.90
25332;DHT22;13284;52.748;13.452;2023-09-08T09:07:58;27.90;99.90
25332;DHT22;13284;52.748;13.452;2023-09-08T09:10:24;28.00;99.90
25332;DHT22;13284;52.748;13.452;2023-09-08T09:12:49;28.10;99.90
25332;DHT22;13284;52.748;13.452;2023-09-08T09:15:15;27.70;99.90
25332;DHT22;13284;52.748;13.452;2023-09-08T09:17:41;28.00;99.90
25332;DHT22;13284;52.748;13.452;2023-09-08T09:20:17;28.20;99.90
25332;DHT22;13284;52.748;13.452;2023-09-08T09:22:44;28.50;99.90
25332;DHT22;13284;52.748;13.452;2023-09-08T09:25:24;28.90;99.90
25332;DHT22;13284;52.748;13.452;2023-09-08T09:27:54;29.10;99.90
25332;DHT22;13284;52.748;13.452;2023-09-08T09:30:21;28.90;99.90
25332;DHT22;13284;52.748;13.452;2023-09-08T09:32:47;28.50;99.90
25332;DHT22;13284;52.748;13.452;2023-09-08T09:35:16;29.00;99.90
25332;DHT22;13284;52.748;13.452;2023-09-08T09:37:42;29.50;99.90
25332;DHT22;13284;52.748;13.452;2023-09-08T09:40:08;29.60;99.90
25332;DHT22;13284;52.748;13.452;2023-09-08T09:42:38;29.70;99.90
25332;DHT22;13284;52.748;13.452;2023-09-08T09:45:06;30.20;99.90
25332;DHT22;13284;52.748;13.452;2023-09-08T09:47:32;30.00;99.90
25332;DHT22;13284;52.748;13.452;2023-09-08T09:49:57;29.80;99.90
25332;DHT22;13284;52.748;13.452;2023-09-08T09:52:24;30.10;99.90
25332;DHT22;13284;52.748;13.452;2023-09-08T09:54:52;30.10;99.90
25332;DHT22;13284;52.748;13.452;2023-09-08T09:57:21;30.30;99.90
25332;DHT22;13284;52.748;13.452;2023-09-08T09:59:47;30.50;99.90
25332;DHT22;13284;52.748;13.452;2023-09-08T10:02:17;30.60;99.90
25332;DHT22;13284;52.748;13.452;2023-09-08T10:04:47;30.40;99.90
25332;DHT22;13284;52.748;13.452;2023-09-08T10:07:14;30.40;99.90
25332;DHT22;13284;52.748;13.452;2023-09-08T10:09:40;30.30;99.90
25332;DHT22;13284;52.748;13.452;2023-09-08T10:12:08;30.40;99.90
25332;DHT22;13284;52.748;13.452;2023-09-08T10:14:41;31.00;99.90
25332;DHT22;13284;52.748;13.452;2023-09-08T10:17:08;31.10;99.90
25332;DHT22;13284;52.748;13.452;2023-09-08T10:19:37;31.00;99.90
25332;DHT22;13284;52.748;13.452;2023-09-08T10:22:10;31.70;99.90
25332;DHT22;13284;52.748;13.452;2023-09-08T10:24:38;31.70;99.90
25332;DHT22;13284;52.748;13.452;2023-09-08T10:27:09;31.50;99.90
25332;DHT22;13284;52.748;13.452;2023-09-08T10:29:35;31.70;99.90
25332;DHT22;13284;52.748;13.452;2023-09-08T10:32:01;31.90;99.90
25332;DHT22;13284;52.748;13.452;2023-09-08T10:34:28;32.20;99.90
25332;DHT22;13284;52.748;13.452;2023-09-08T10:36:55;32.00;99.90
25332;DHT22;13284;52.748;13.452;2023-09-08T10:39:32;31.80;99.90
25332;DHT22;13284;52.748;13.452;2023-09-08T10:42:23;31.90;99.70
25332;DHT22;13284;52.748;13.452;2023-09-08T10:45:01;32.10;99.60
25332;DHT22;13284;52.748;13.452;2023-09-08T10:50:18;32.20;98.80
25332;DHT22;13284;52.748;13.452;2023-09-08T10:52:44;32.20;98.80
25332;DHT22;13284;52.748;13.452;2023-09-08T10:55:11;32.30;98.60
25332;DHT22;13284;52.748;13.452;2023-09-08T10:57:37;32.20;98.30
25332;DHT22;13284;52.748;13.452;2023-09-08T11:00:04;31.90;97.90
25332;DHT22;13284;52.748;13.452;2023-09-08T11:02:49;32.20;98.30
25332;DHT22;13284;52.748;13.452;2023-09-08T11:05:16;32.50;96.80
25332;DHT22;13284;52.748;13.452;2023-09-08T11:07:44;32.50;96.80
25332;DHT22;13284;52.748;13.452;2023-09-08T11:10:11;32.40;97.20
25332;DHT22;13284;52.748;13.452;2023-09-08T11:12:37;32.60;97.10
25332;DHT22;13284;52.748;13.452;2023-09-08T11:15:05;32.20;96.70
25332;DHT22;13284;52.748;13.452;2023-09-08T11:17:32;31.70;98.20
25332;DHT22;13284;52.748;13.452;2023-09-08T11:19:58;32.20;96.00
25332;DHT22;13284;52.748;13.452;2023-09-08T11:22:25;32.20;96.80
25332;DHT22;13284;52.748;13.452;2023-09-08T11:24:56;32.70;96.70
25332;DHT22;13284;52.748;13.452;2023-09-08T11:27:27;32.80;95.40
25332;DHT22;13284;52.748;13.452;2023-09-08T11:29:53;32.90;95.80
25332;DHT22;13284;52.748;13.452;2023-09-08T11:32:39;32.70;95.70
25332;DHT22;13284;52.748;13.452;2023-09-08T11:35:08;33.00;95.10
25332;DHT22;13284;52.748;13.452;2023-09-08T11:37:37;32.90;95.30
25332;DHT22;13284;52.748;13.452;2023-09-08T11:40:07;33.20;95.30
25332;DHT22;13284;52.748;13.452;2023-09-08T11:42:38;33.20;94.50
25332;DHT22;13284;52.748;13.452;2023-09-08T11:45:10;33.50;95.10
25332;DHT22;13284;52.748;13.452;2023-09-08T11:47:39;33.50;92.80
25332;DHT22;13284;52.748;13.452;2023-09-08T11:50:05;33.50;93.50
25332;DHT22;13284;52.748;13.452;2023-09-08T11:52:32;34.00;93.40
25332;DHT22;13284;52.748;13.452;2023-09-08T11:54:58;34.10;92.80
25332;DHT22;13284;52.748;13.452;2023-09-08T11:57:24;34.50;93.50
25332;DHT22;13284;52.748;13.452;2023-09-08T11:59:50;34.40;92.70
25332;DHT22;13284;52.748;13.452;2023-09-08T12:02:15;34.00;92.20
25332;DHT22;13284;52.748;13.452;2023-09-08T12:04:42;33.80;93.00
25332;DHT22;13284;52.748;13.452;2023-09-08T12:07:12;33.90;93.80
25332;DHT22;13284;52.748;13.452;2023-09-08T12:09:41;33.50;93.00
25332;DHT22;13284;52.748;13.452;2023-09-08T12:12:16;33.60;93.00
25332;DHT22;13284;52.748;13.452;2023-09-08T12:14:42;33.50;92.40
25332;DHT22;13284;52.748;13.452;2023-09-08T12:17:08;33.50;92.20
25332;DHT22;13284;52.748;13.452;2023-09-08T12:19:34;33.60;92.10
25332;DHT22;13284;52.748;13.452;2023-09-08T12:22:04;33.70;91.80
25332;DHT22;13284;52.748;13.452;2023-09-08T12:24:49;33.70;91.90
25332;DHT22;13284;52.748;13.452;2023-09-08T12:27:15;33.40;92.00
25332;DHT22;13284;52.748;13.452;2023-09-08T12:29:51;33.30;91.40
25332;DHT22;13284;52.748;13.452;2023-09-08T12:32:17;33.20;91.20
25332;DHT22;13284;52.748;13.452;2023-09-08T12:34:43;33.00;91.80
25332;DHT22;13284;52.748;13.452;2023-09-08T12:37:10;33.20;91.30
25332;DHT22;13284;52.748;13.452;2023-09-08T12:42:03;33.50;90.20
25332;DHT22;13284;52.748;13.452;2023-09-08T12:44:29;33.50;90.30
25332;DHT22;13284;52.748;13.452;2023-09-08T12:46:54;33.70;90.70
25332;DHT22;13284;52.748;13.452;2023-09-08T12:49:20;33.50;90.00
25332;DHT22;13284;52.748;13.452;2023-09-08T12:51:46;33.20;87.90
25332;DHT22;13284;52.748;13.452;2023-09-08T12:54:11;33.20;88.70
25332;DHT22;13284;52.748;13.452;2023-09-08T12:56:37;33.60;90.30
25332;DHT22;13284;52.748;13.452;2023-09-08T12:59:02;33.60;90.10
25332;DHT22;13284;52.748;13.452;2023-09-08T13:01:28;33.60;90.20
25332;DHT22;13284;52.748;13.452;2023-09-08T13:03:54;33.50;88.30
25332;DHT22;13284;52.748;13.452;2023-09-08T13:06:20;33.30;86.60
25332;DHT22;13284;52.748;13.452;2023-09-08T13:08:45;33.60;88.10
25332;DHT22;13284;52.748;13.452;2023-09-08T13:11:10;33.60;87.20
25332;DHT22;13284;52.748;13.452;2023-09-08T13:13:36;33.60;85.40
25332;DHT22;13284;52.748;13.452;2023-09-08T13:16:01;33.80;85.40
25332;DHT22;13284;52.748;13.452;2023-09-08T13:18:27;33.90;88.40
25332;DHT22;13284;52.748;13.452;2023-09-08T13:20:52;33.60;87.20
25332;DHT22;13284;52.748;13.452;2023-09-08T13:23:18;33.10;87.20
25332;DHT22;13284;52.748;13.452;2023-09-08T13:25:45;33.30;87.20
25332;DHT22;13284;52.748;13.452;2023-09-08T13:28:11;33.40;88.80
25332;DHT22;13284;52.748;13.452;2023-09-08T13:30:37;33.40;87.30
25332;DHT22;13284;52.748;13.452;2023-09-08T13:33:02;33.20;89.30
25332;DHT22;13284;52.748;13.452;2023-09-08T13:35:28;33.00;88.20
25332;DHT22;13284;52.748;13.452;2023-09-08T13:37:53;32.70;89.40
25332;DHT22;13284;52.748;13.452;2023-09-08T13:40:19;32.70;89.90
25332;DHT22;13284;52.748;13.452;2023-09-08T13:42:44;32.60;90.00
25332;DHT22;13284;52.748;13.452;2023-09-08T13:45:10;32.60;88.10
25332;DHT22;13284;52.748;13.452;2023-09-08T13:47:36;32.40;87.50
25332;DHT22;13284;52.748;13.452;2023-09-08T13:50:03;32.40;87.80
25332;DHT22;13284;52.748;13.452;2023-09-08T13:52:29;32.20;88.70
25332;DHT22;13284;52.748;13.452;2023-09-08T13:54:54;32.30;88.90
25332;DHT22;13284;52.748;13.452;2023-09-08T13:57:20;32.30;89.00
25332;DHT22;13284;52.748;13.452;2023-09-08T13:59:46;32.10;90.00
25332;DHT22;13284;52.748;13.452;2023-09-08T14:02:12;32.00;90.70
25332;DHT22;13284;52.748;13.452;2023-09-08T14:04:37;32.10;91.10
25332;DHT22;13284;52.748;13.452;2023-09-08T14:07:05;31.80;90.60
25332;DHT22;13284;52.748;13.452;2023-09-08T14:09:31;31.90;91.00
25332;DHT22;13284;52.748;13.452;2023-09-08T14:11:56;32.00;90.90
25332;DHT22;13284;52.748;13.452;2023-09-08T14:14:22;31.70;90.50
25332;DHT22;13284;52.748;13.452;2023-09-08T14:16:49;31.50;90.80
25332;DHT22;13284;52.748;13.452;2023-09-08T14:19:15;31.70;91.30
25332;DHT22;13284;52.748;13.452;2023-09-08T14:21:40;31.60;91.50
25332;DHT22;13284;52.748;13.452;2023-09-08T14:24:06;31.30;91.30
25332;DHT22;13284;52.748;13.452;2023-09-08T14:26:32;31.10;92.00
25332;DHT22;13284;52.748;13.452;2023-09-08T14:28:57;31.00;91.80
25332;DHT22;13284;52.748;13.452;2023-09-08T14:31:23;31.00;91.50
25332;DHT22;13284;52.748;13.452;2023-09-08T14:33:48;31.20;91.30
25332;DHT22;13284;52.748;13.452;2023-09-08T14:36:20;31.20;92.10
25332;DHT22;13284;52.748;13.452;2023-09-08T14:38:46;31.10;92.10
25332;DHT22;13284;52.748;13.452;2023-09-08T14:41:12;30.90;91.60
25332;DHT22;13284;52.748;13.452;2023-09-08T14:43:37;30.90;92.10
25332;DHT22;13284;52.748;13.452;2023-09-08T14:46:04;30.90;92.60
25332;DHT22;13284;52.748;13.452;2023-09-08T14:48:29;30.80;92.80
25332;DHT22;13284;52.748;13.452;2023-09-08T14:50:56;30.90;93.20
25332;DHT22;13284;52.748;13.452;2023-09-08T14:53:22;30.70;92.90
25332;DHT22;13284;52.748;13.452;2023-09-08T14:55:48;30.80;93.00
25332;DHT22;13284;52.748;13.452;2023-09-08T14:58:17;30.60;92.50
25332;DHT22;13284;52.748;13.452;2023-09-08T15:00:44;30.60;92.40
25332;DHT22;13284;52.748;13.452;2023-09-08T15:03:09;30.60;92.70
25332;DHT22;13284;52.748;13.452;2023-09-08T15:05:35;30.70;92.70
25332;DHT22;13284;52.748;13.452;2023-09-08T15:08:02;30.70;92.60
25332;DHT22;13284;52.748;13.452;2023-09-08T15:10:28;30.50;92.80
25332;DHT22;13284;52.748;13.452;2023-09-08T15:12:53;30.40;92.10
25332;DHT22;13284;52.748;13.452;2023-09-08T15:15:19;30.40;92.40
25332;DHT22;13284;52.748;13.452;2023-09-08T15:17:52;30.10;91.90
25332;DHT22;13284;52.748;13.452;2023-09-08T15:20:18;30.10;91.90
25332;DHT22;13284;52.748;13.452;2023-09-08T15:22:44;30.30;92.60
25332;DHT22;13284;52.748;13.452;2023-09-08T15:25:09;30.30;92.10
25332;DHT22;13284;52.748;13.452;2023-09-08T15:27:35;30.20;92.00
25332;DHT22;13284;52.748;13.452;2023-09-08T15:30:00;30.20;92.50
25332;DHT22;13284;52.748;13.452;2023-09-08T15:32:26;30.00;91.70
25332;DHT22;13284;52.748;13.452;2023-09-08T15:34:51;30.00;91.90
25332;DHT22;13284;52.748;13.452;2023-09-08T15:37:17;29.80;92.00
25332;DHT22;13284;52.748;13.452;2023-09-08T15:39:43;29.90;92.10
25332;DHT22;13284;52.748;13.452;2023-09-08T15:42:09;29.90;92.40
25332;DHT22;13284;52.748;13.452;2023-09-08T15:44:34;30.00;92.30
25332;DHT22;13284;52.748;13.452;2023-09-08T15:47:00;29.90;92.60
25332;DHT22;13284;52.748;13.452;2023-09-08T15:49:26;29.60;92.00
25332;DHT22;13284;52.748;13.452;2023-09-08T15:51:51;29.50;92.20
25332;DHT22;13284;52.748;13.452;2023-09-08T15:54:17;29.50;92.20
25332;DHT22;13284;52.748;13.452;2023-09-08T15:56:43;29.50;93.00
25332;DHT22;13284;52.748;13.452;2023-09-08T15:59:09;29.30;92.80
25332;DHT22;13284;52.748;13.452;2023-09-08T16:01:34;29.30;92.00